PWSweather.com
Personal Weather Stations
Station Observations
IONTARIO88
Lincoln, ON L0R

Lincoln, ON L0R

Lat: 43.1763563, Lon: -79.4719525

Elevation: 297

Station Type: Davis Vantage Pro 2 Plus

http://www.beamsvillewx.ca

High Low Average
Temperature 56.8°F13.8°C 16.2°F-8.8°C 40.0°F4.4°C
Dew Point 53.4°F11.9°C 13.7°F-10.2°C 37.7°F3.2°C
Winds 13.0 mph 20.9 kmh 1.0 mph 1.6 kmh 8.0 mph SW12.9 kmh SW
Wind Gusts 26.0 mph41.8 kmh 4.0 mph6.4 kmh 17.0 mph27.4 kmh
Humidity 94% 87% 91%
Pressure 30.04 in1017.3 mb 29.58 in1001.7 mb -
Precipitation 0.48 in12.2 mm - -
Hour Temp Dew Point Humidity Winds Wind Gusts Pressure Precip Precip Rate Daily Precip Total
12:00 AM 52.3°F11.3°C 49.8°F9.9°C 91% 9.0 mph SSW14.5 kmh SSW 21.0 mph33.8 kmh 29.78 in1008.5 mb 0.00 in0.0 mm 0.00 in0.0 mm 0.32 in8.1 mm
12:15 AM 52.2°F11.2°C 49.9°F9.9°C 92% 8.0 mph SSW12.9 kmh SSW 20.0 mph32.2 kmh 29.78 in1008.5 mb 0.01 in0.3 mm 0.04 in1.0 mm 0.33 in8.4 mm
12:30 AM 52.0°F11.1°C 49.7°F9.8°C 92% 7.0 mph SSW11.3 kmh SSW 17.0 mph27.4 kmh 29.78 in1008.5 mb 0.01 in0.3 mm 0.00 in0.0 mm 0.33 in8.4 mm
12:45 AM 52.0°F11.1°C 49.7°F9.8°C 92% 8.0 mph SSW12.9 kmh SSW 23.0 mph37.0 kmh 29.77 in1008.1 mb 0.02 in0.5 mm 0.04 in1.0 mm 0.34 in8.6 mm
01:00 AM 51.8°F11.0°C 49.5°F9.7°C 92% 8.0 mph SSW12.9 kmh SSW 18.0 mph29.0 kmh 29.76 in1007.8 mb 0.02 in0.5 mm 0.00 in0.0 mm 0.02 in0.5 mm
01:15 AM 51.6°F10.9°C 49.4°F9.7°C 92% 7.0 mph S11.3 kmh S 16.0 mph25.7 kmh 29.75 in1007.5 mb 0.02 in0.5 mm 0.00 in0.0 mm 0.02 in0.5 mm
01:30 AM 53.1°F11.7°C 51.1°F10.6°C 93% 11.0 mph S17.7 kmh S 23.0 mph37.0 kmh 29.74 in1007.1 mb 0.02 in0.5 mm 0.00 in0.0 mm 0.01 in0.3 mm
01:45 AM 53.1°F11.7°C 50.8°F10.4°C 92% 10.0 mph S16.1 kmh S 21.0 mph33.8 kmh 29.73 in1006.8 mb 0.02 in0.5 mm 0.00 in0.0 mm 0.01 in0.3 mm
02:00 AM 52.9°F11.6°C 50.6°F10.3°C 92% 10.0 mph S16.1 kmh S 26.0 mph41.8 kmh 29.72 in1006.4 mb 0.01 in0.3 mm 0.00 in0.0 mm 0.01 in0.3 mm
02:15 AM 52.5°F11.4°C 50.3°F10.2°C 92% 10.0 mph S16.1 kmh S 20.0 mph32.2 kmh 29.71 in1006.1 mb 0.01 in0.3 mm 0.00 in0.0 mm 0.01 in0.3 mm
02:30 AM 52.7°F11.5°C 50.4°F10.2°C 92% 10.0 mph S16.1 kmh S 22.0 mph35.4 kmh 29.70 in1005.8 mb 0.00 in0.0 mm 0.00 in0.0 mm 0.01 in0.3 mm
02:45 AM 53.1°F11.7°C 50.5°F10.3°C 91% 10.0 mph S16.1 kmh S 21.0 mph33.8 kmh 29.69 in1005.4 mb 0.00 in0.0 mm 0.00 in0.0 mm 0.01 in0.3 mm
03:00 AM 53.2°F11.8°C 50.7°F10.4°C 91% 10.0 mph S16.1 kmh S 20.0 mph32.2 kmh 29.69 in1005.4 mb 0.00 in0.0 mm 0.00 in0.0 mm 0.01 in0.3 mm
03:15 AM 53.8°F12.1°C 51.2°F10.7°C 91% 10.0 mph S16.1 kmh S 18.0 mph29.0 kmh 29.68 in1005.1 mb 0.00 in0.0 mm 0.00 in0.0 mm 0.01 in0.3 mm
03:30 AM 54.0°F12.2°C 51.4°F10.8°C 91% 8.0 mph S12.9 kmh S 20.0 mph32.2 kmh 29.67 in1004.7 mb 0.00 in0.0 mm 0.00 in0.0 mm 0.01 in0.3 mm
03:45 AM 54.3°F12.4°C 51.7°F10.9°C 91% 9.0 mph S14.5 kmh S 21.0 mph33.8 kmh 29.67 in1004.7 mb 0.00 in0.0 mm 0.00 in0.0 mm 0.01 in0.3 mm
04:00 AM 54.9°F12.7°C 52.3°F11.3°C 91% 8.0 mph S12.9 kmh S 17.0 mph27.4 kmh 29.66 in1004.4 mb 0.00 in0.0 mm 0.00 in0.0 mm 0.01 in0.3 mm
04:15 AM 55.0°F12.8°C 52.2°F11.2°C 90% 8.0 mph SSW12.9 kmh SSW 18.0 mph29.0 kmh 29.66 in1004.4 mb 0.00 in0.0 mm 0.00 in0.0 mm 0.01 in0.3 mm
04:30 AM 55.4°F13.0°C 52.5°F11.4°C 90% 7.0 mph SSW11.3 kmh SSW 17.0 mph27.4 kmh 29.66 in1004.4 mb 0.00 in0.0 mm 0.00 in0.0 mm 0.01 in0.3 mm
04:45 AM 55.9°F13.3°C 53.0°F11.7°C 90% 8.0 mph SSW12.9 kmh SSW 20.0 mph32.2 kmh 29.66 in1004.4 mb 0.00 in0.0 mm 0.00 in0.0 mm 0.01 in0.3 mm
05:00 AM 56.5°F13.6°C 53.3°F11.8°C 89% 9.0 mph SSW14.5 kmh SSW 19.0 mph30.6 kmh 29.65 in1004.1 mb 0.00 in0.0 mm 0.00 in0.0 mm 0.01 in0.3 mm
05:15 AM 56.3°F13.5°C 53.1°F11.7°C 89% 6.0 mph SSW9.7 kmh SSW 16.0 mph25.7 kmh 29.66 in1004.4 mb 0.00 in0.0 mm 0.00 in0.0 mm 0.01 in0.3 mm
05:30 AM 56.1°F13.4°C 52.9°F11.6°C 89% 6.0 mph SSW9.7 kmh SSW 14.0 mph22.5 kmh 29.65 in1004.1 mb 0.00 in0.0 mm 0.00 in0.0 mm 0.01 in0.3 mm
05:45 AM 56.3°F13.5°C 53.1°F11.7°C 89% 7.0 mph S11.3 kmh S 15.0 mph24.1 kmh 29.64 in1003.7 mb 0.00 in0.0 mm 0.00 in0.0 mm 0.01 in0.3 mm
06:00 AM 56.8°F13.8°C 53.3°F11.8°C 88% 9.0 mph S14.5 kmh S 16.0 mph25.7 kmh 29.64 in1003.7 mb 0.00 in0.0 mm 0.00 in0.0 mm 0.01 in0.3 mm
06:15 AM 56.1°F13.4°C 52.9°F11.6°C 89% 5.0 mph S8.0 kmh S 10.0 mph16.1 kmh 29.63 in1003.4 mb 0.01 in0.3 mm 0.04 in1.0 mm 0.02 in0.5 mm
06:30 AM 55.4°F13.0°C 52.8°F11.6°C 91% 5.0 mph S8.0 kmh S 11.0 mph17.7 kmh 29.62 in1003.0 mb 0.02 in0.5 mm 0.04 in1.0 mm 0.02 in0.5 mm
06:45 AM 55.0°F12.8°C 52.5°F11.4°C 91% 6.0 mph S9.7 kmh S 12.0 mph19.3 kmh 29.61 in1002.7 mb 0.02 in0.5 mm 0.00 in0.0 mm 0.02 in0.5 mm
07:00 AM 55.0°F12.8°C 52.8°F11.6°C 92% 6.0 mph S9.7 kmh S 15.0 mph24.1 kmh 29.61 in1002.7 mb 0.02 in0.5 mm 0.00 in0.0 mm 0.02 in0.5 mm
07:15 AM 55.2°F12.9°C 52.9°F11.6°C 92% 6.0 mph S9.7 kmh S 15.0 mph24.1 kmh 29.59 in1002.0 mb 0.01 in0.3 mm 0.00 in0.0 mm 0.02 in0.5 mm
07:30 AM 55.6°F13.1°C 53.3°F11.8°C 92% 5.0 mph SSW8.0 kmh SSW 14.0 mph22.5 kmh 29.59 in1002.0 mb 0.00 in0.0 mm 0.00 in0.0 mm 0.02 in0.5 mm
07:45 AM 55.4°F13.0°C 52.8°F11.6°C 91% 7.0 mph S11.3 kmh S 14.0 mph22.5 kmh 29.59 in1002.0 mb 0.00 in0.0 mm 0.00 in0.0 mm 0.02 in0.5 mm
08:00 AM 55.4°F13.0°C 52.8°F11.6°C 91% 5.0 mph SSW8.0 kmh SSW 12.0 mph19.3 kmh 29.59 in1002.0 mb 0.00 in0.0 mm 0.00 in0.0 mm 0.02 in0.5 mm
08:15 AM 55.9°F13.3°C 53.4°F11.9°C 91% 6.0 mph SSW9.7 kmh SSW 15.0 mph24.1 kmh 29.58 in1001.7 mb 0.00 in0.0 mm 0.00 in0.0 mm 0.02 in0.5 mm
08:30 AM 55.9°F13.3°C 53.4°F11.9°C 91% 5.0 mph SSW8.0 kmh SSW 13.0 mph20.9 kmh 29.58 in1001.7 mb 0.00 in0.0 mm 0.00 in0.0 mm 0.02 in0.5 mm
08:45 AM 55.9°F13.3°C 53.4°F11.9°C 91% 5.0 mph SW8.0 kmh SW 13.0 mph20.9 kmh 29.58 in1001.7 mb 0.01 in0.3 mm 0.04 in1.0 mm 0.03 in0.8 mm
09:00 AM 55.9°F13.3°C 53.4°F11.9°C 91% 6.0 mph SW9.7 kmh SW 17.0 mph27.4 kmh 29.58 in1001.7 mb 0.01 in0.3 mm 0.00 in0.0 mm 0.03 in0.8 mm
09:15 AM 55.6°F13.1°C 53.0°F11.7°C 91% 4.0 mph WSW6.4 kmh WSW 11.0 mph17.7 kmh 29.59 in1002.0 mb 0.01 in0.3 mm 0.00 in0.0 mm 0.03 in0.8 mm
09:30 AM 54.9°F12.7°C 52.6°F11.4°C 92% 4.0 mph SW6.4 kmh SW 10.0 mph16.1 kmh 29.59 in1002.0 mb 0.02 in0.5 mm 0.04 in1.0 mm 0.04 in1.0 mm
09:45 AM 54.3°F12.4°C 52.0°F11.1°C 92% 4.0 mph SW6.4 kmh SW 11.0 mph17.7 kmh 29.59 in1002.0 mb 0.01 in0.3 mm 0.00 in0.0 mm 0.04 in1.0 mm
10:00 AM 54.0°F12.2°C 51.7°F10.9°C 92% 5.0 mph SW8.0 kmh SW 10.0 mph16.1 kmh 29.59 in1002.0 mb 0.02 in0.5 mm 0.01 in0.3 mm 0.05 in1.3 mm
10:15 AM 53.8°F12.1°C 51.8°F11.0°C 93% 2.0 mph WSW3.2 kmh WSW 7.0 mph11.3 kmh 29.59 in1002.0 mb 0.02 in0.5 mm 0.00 in0.0 mm 0.05 in1.3 mm
10:30 AM 53.6°F12.0°C 51.6°F10.9°C 93% 1.0 mph WSW1.6 kmh WSW 4.0 mph6.4 kmh 29.59 in1002.0 mb 0.01 in0.3 mm 0.00 in0.0 mm 0.05 in1.3 mm
10:45 AM 53.4°F11.9°C 51.4°F10.8°C 93% 1.0 mph WSW1.6 kmh WSW 6.0 mph9.7 kmh 29.61 in1002.7 mb 0.02 in0.5 mm 0.04 in1.0 mm 0.06 in1.5 mm
11:00 AM 47.5°F8.6°C 43.8°F6.6°C 87% 9.0 mph N14.5 kmh N 25.0 mph40.2 kmh 29.63 in1003.4 mb 0.06 in1.5 mm 0.05 in1.3 mm 0.10 in2.5 mm
11:15 AM 43.0°F6.1°C 40.8°F4.9°C 92% 9.0 mph N14.5 kmh N 17.0 mph27.4 kmh 29.66 in1004.4 mb 0.09 in2.3 mm 0.12 in3.0 mm 0.13 in3.3 mm
11:30 AM 42.4°F5.8°C 40.6°F4.8°C 93% 8.0 mph N12.9 kmh N 19.0 mph30.6 kmh 29.68 in1005.1 mb 0.09 in2.3 mm 0.00 in0.0 mm 0.14 in3.6 mm
11:45 AM 41.4°F5.2°C 39.5°F4.2°C 93% 8.0 mph NNW12.9 kmh NNW 15.0 mph24.1 kmh 29.68 in1005.1 mb 0.10 in2.5 mm 0.04 in1.0 mm 0.16 in4.1 mm
12:00 PM 40.5°F4.7°C 38.6°F3.7°C 93% 9.0 mph NNW14.5 kmh NNW 16.0 mph25.7 kmh 29.68 in1005.1 mb 0.06 in1.5 mm 0.00 in0.0 mm 0.17 in4.3 mm
12:15 PM 39.9°F4.4°C 38.1°F3.4°C 93% 9.0 mph NNW14.5 kmh NNW 14.0 mph22.5 kmh 29.68 in1005.1 mb 0.06 in1.5 mm 0.00 in0.0 mm 0.19 in4.8 mm
12:30 PM 39.4°F4.1°C 37.5°F3.1°C 93% 8.0 mph NW12.9 kmh NW 14.0 mph22.5 kmh 29.69 in1005.4 mb 0.08 in2.0 mm 0.08 in2.0 mm 0.22 in5.6 mm
12:45 PM 38.8°F3.8°C 37.0°F2.8°C 93% 10.0 mph NW16.1 kmh NW 19.0 mph30.6 kmh 29.72 in1006.4 mb 0.10 in2.5 mm 0.08 in2.0 mm 0.26 in6.6 mm
01:00 PM 38.3°F3.5°C 36.7°F2.6°C 94% 9.0 mph NW14.5 kmh NW 16.0 mph25.7 kmh 29.71 in1006.1 mb 0.12 in3.0 mm 0.03 in0.8 mm 0.29 in7.4 mm
01:15 PM 38.5°F3.6°C 36.9°F2.7°C 94% 7.0 mph NW11.3 kmh NW 12.0 mph19.3 kmh 29.70 in1005.8 mb 0.13 in3.3 mm 0.04 in1.0 mm 0.31 in7.9 mm
01:30 PM 38.3°F3.5°C 36.7°F2.6°C 94% 7.0 mph NNW11.3 kmh NNW 16.0 mph25.7 kmh 29.70 in1005.8 mb 0.10 in2.5 mm 0.00 in0.0 mm 0.32 in8.1 mm
01:45 PM 38.1°F3.4°C 36.5°F2.5°C 94% 6.0 mph N9.7 kmh N 11.0 mph17.7 kmh 29.71 in1006.1 mb 0.06 in1.5 mm 0.00 in0.0 mm 0.32 in8.1 mm
02:00 PM 37.8°F3.2°C 36.2°F2.3°C 94% 8.0 mph N12.9 kmh N 17.0 mph27.4 kmh 29.72 in1006.4 mb 0.04 in1.0 mm 0.00 in0.0 mm 0.33 in8.4 mm
02:15 PM 36.9°F2.7°C 35.3°F1.8°C 94% 6.0 mph N9.7 kmh N 15.0 mph24.1 kmh 29.71 in1006.1 mb 0.02 in0.5 mm 0.00 in0.0 mm 0.34 in8.6 mm
02:30 PM 35.8°F2.1°C 34.0°F1.1°C 93% 8.0 mph N12.9 kmh N 13.0 mph20.9 kmh 29.73 in1006.8 mb 0.02 in0.5 mm 0.00 in0.0 mm 0.34 in8.6 mm
02:45 PM 35.1°F1.7°C 33.2°F0.7°C 93% 8.0 mph N12.9 kmh N 15.0 mph24.1 kmh 29.76 in1007.8 mb 0.04 in1.0 mm 0.08 in2.0 mm 0.36 in9.1 mm
03:00 PM 35.1°F1.7°C 33.2°F0.7°C 93% 7.0 mph N11.3 kmh N 16.0 mph25.7 kmh 29.77 in1008.1 mb 0.06 in1.5 mm 0.03 in0.8 mm 0.39 in9.9 mm
03:15 PM 34.3°F1.3°C 32.5°F0.3°C 93% 9.0 mph NNW14.5 kmh NNW 17.0 mph27.4 kmh 29.78 in1008.5 mb 0.06 in1.5 mm 0.00 in0.0 mm 0.40 in10.2 mm
03:30 PM 34.0°F1.1°C 31.9°F-0.1°C 92% 8.0 mph N12.9 kmh N 15.0 mph24.1 kmh 29.79 in1008.8 mb 0.06 in1.5 mm 0.00 in0.0 mm 0.40 in10.2 mm
03:45 PM 33.1°F0.6°C 31.0°F-0.6°C 92% 10.0 mph NNW16.1 kmh NNW 19.0 mph30.6 kmh 29.79 in1008.8 mb 0.04 in1.0 mm 0.00 in0.0 mm 0.40 in10.2 mm
04:00 PM 32.5°F0.3°C 30.7°F-0.7°C 93% 9.0 mph N14.5 kmh N 16.0 mph25.7 kmh 29.81 in1009.5 mb 0.02 in0.5 mm 0.00 in0.0 mm 0.41 in10.4 mm
04:15 PM 31.3°F-0.4°C 29.2°F-1.6°C 92% 10.0 mph NNW16.1 kmh NNW 20.0 mph32.2 kmh 29.81 in1009.5 mb 0.02 in0.5 mm 0.00 in0.0 mm 0.42 in10.7 mm
04:30 PM 30.0°F-1.1°C 28.0°F-2.2°C 92% 10.0 mph NNW16.1 kmh NNW 18.0 mph29.0 kmh 29.85 in1010.8 mb 0.02 in0.5 mm 0.00 in0.0 mm 0.42 in10.7 mm
04:45 PM 28.2°F-2.1°C 25.7°F-3.5°C 90% 10.0 mph NNW16.1 kmh NNW 18.0 mph29.0 kmh 29.85 in1010.8 mb 0.02 in0.5 mm 0.00 in0.0 mm 0.42 in10.7 mm
05:00 PM 27.3°F-2.6°C 25.0°F-3.9°C 91% 9.0 mph NNW14.5 kmh NNW 20.0 mph32.2 kmh 29.88 in1011.9 mb 0.01 in0.3 mm 0.00 in0.0 mm 0.42 in10.7 mm
05:15 PM 26.2°F-3.2°C 24.0°F-4.4°C 91% 10.0 mph NNW16.1 kmh NNW 24.0 mph38.6 kmh 29.89 in1012.2 mb 0.00 in0.0 mm 0.00 in0.0 mm 0.42 in10.7 mm
05:30 PM 25.5°F-3.6°C 23.3°F-4.8°C 91% 9.0 mph NNW14.5 kmh NNW 17.0 mph27.4 kmh 29.90 in1012.5 mb 0.00 in0.0 mm 0.00 in0.0 mm 0.42 in10.7 mm
05:45 PM 25.2°F-3.8°C 23.2°F-4.9°C 92% 7.0 mph NNW11.3 kmh NNW 16.0 mph25.7 kmh 29.91 in1012.9 mb 0.02 in0.5 mm 0.08 in2.0 mm 0.43 in10.9 mm
06:00 PM 24.4°F-4.2°C 22.2°F-5.4°C 91% 9.0 mph NNW14.5 kmh NNW 18.0 mph29.0 kmh 29.93 in1013.5 mb 0.02 in0.5 mm 0.00 in0.0 mm 0.43 in10.9 mm
06:15 PM 24.3°F-4.3°C 22.3°F-5.4°C 92% 10.0 mph NNW16.1 kmh NNW 19.0 mph30.6 kmh 29.94 in1013.9 mb 0.03 in0.8 mm 0.04 in1.0 mm 0.45 in11.4 mm
06:30 PM 23.5°F-4.7°C 21.3°F-5.9°C 91% 11.0 mph N17.7 kmh N 23.0 mph37.0 kmh 29.95 in1014.2 mb 0.03 in0.8 mm 0.00 in0.0 mm 0.45 in11.4 mm
06:45 PM 22.5°F-5.3°C 20.2°F-6.6°C 91% 12.0 mph N19.3 kmh N 23.0 mph37.0 kmh 29.95 in1014.2 mb 0.02 in0.5 mm 0.00 in0.0 mm 0.45 in11.4 mm
07:00 PM 21.7°F-5.7°C 19.5°F-6.9°C 91% 13.0 mph N20.9 kmh N 24.0 mph38.6 kmh 29.95 in1014.2 mb 0.02 in0.5 mm 0.00 in0.0 mm 0.45 in11.4 mm
07:15 PM 21.7°F-5.7°C 19.8°F-6.8°C 92% 11.0 mph N17.7 kmh N 20.0 mph32.2 kmh 29.96 in1014.6 mb 0.01 in0.3 mm 0.00 in0.0 mm 0.46 in11.7 mm
07:30 PM 21.6°F-5.8°C 19.6°F-6.9°C 92% 12.0 mph N19.3 kmh N 21.0 mph33.8 kmh 29.96 in1014.6 mb 0.02 in0.5 mm 0.04 in1.0 mm 0.46 in11.7 mm
07:45 PM 21.0°F-6.1°C 18.8°F-7.3°C 91% 11.0 mph N17.7 kmh N 21.0 mph33.8 kmh 29.96 in1014.6 mb 0.02 in0.5 mm 0.00 in0.0 mm 0.47 in11.9 mm
08:00 PM 20.5°F-6.4°C 18.3°F-7.6°C 91% 13.0 mph N20.9 kmh N 23.0 mph37.0 kmh 29.98 in1015.2 mb 0.02 in0.5 mm 0.00 in0.0 mm 0.47 in11.9 mm
08:15 PM 20.3°F-6.5°C 18.1°F-7.7°C 91% 10.0 mph N16.1 kmh N 22.0 mph35.4 kmh 30.02 in1016.6 mb 0.02 in0.5 mm 0.00 in0.0 mm 0.48 in12.2 mm
08:30 PM 20.1°F-6.6°C 17.9°F-7.8°C 91% 10.0 mph N16.1 kmh N 18.0 mph29.0 kmh 30.02 in1016.6 mb 0.02 in0.5 mm 0.00 in0.0 mm 0.48 in12.2 mm
08:45 PM 19.9°F-6.7°C 17.5°F-8.1°C 90% 11.0 mph N17.7 kmh N 22.0 mph35.4 kmh 30.02 in1016.6 mb 0.01 in0.3 mm 0.00 in0.0 mm 0.48 in12.2 mm
09:00 PM 19.9°F-6.7°C 17.2°F-8.2°C 89% 11.0 mph N17.7 kmh N 21.0 mph33.8 kmh 30.02 in1016.6 mb 0.01 in0.3 mm 0.00 in0.0 mm 0.48 in12.2 mm
09:15 PM 19.6°F-6.9°C 16.6°F-8.6°C 88% 13.0 mph N20.9 kmh N 26.0 mph41.8 kmh 30.00 in1015.9 mb 0.00 in0.0 mm 0.00 in0.0 mm 0.48 in12.2 mm
09:30 PM 19.2°F-7.1°C 16.5°F-8.6°C 89% 11.0 mph N17.7 kmh N 23.0 mph37.0 kmh 30.01 in1016.3 mb 0.00 in0.0 mm 0.00 in0.0 mm 0.48 in12.2 mm
09:45 PM 18.7°F-7.4°C 16.2°F-8.8°C 90% 13.0 mph N20.9 kmh N 22.0 mph35.4 kmh 30.01 in1016.3 mb 0.00 in0.0 mm 0.00 in0.0 mm 0.48 in12.2 mm
10:00 PM 18.1°F-7.7°C 15.7°F-9.1°C 90% 13.0 mph N20.9 kmh N 23.0 mph37.0 kmh 30.00 in1015.9 mb 0.00 in0.0 mm 0.00 in0.0 mm 0.48 in12.2 mm
10:15 PM 18.0°F-7.8°C 15.3°F-9.3°C 89% 11.0 mph N17.7 kmh N 22.0 mph35.4 kmh 30.00 in1015.9 mb 0.00 in0.0 mm 0.00 in0.0 mm 0.48 in12.2 mm
10:30 PM 18.0°F-7.8°C 15.5°F-9.2°C 90% 11.0 mph N17.7 kmh N 20.0 mph32.2 kmh 30.00 in1015.9 mb 0.00 in0.0 mm 0.00 in0.0 mm 0.48 in12.2 mm
10:45 PM 17.6°F-8.0°C 14.9°F-9.5°C 89% 11.0 mph N17.7 kmh N 22.0 mph35.4 kmh 30.01 in1016.3 mb 0.00 in0.0 mm 0.00 in0.0 mm 0.48 in12.2 mm
11:15 PM 17.2°F-8.2°C 14.8°F-9.6°C 90% 11.0 mph N17.7 kmh N 20.0 mph32.2 kmh 30.01 in1016.3 mb 0.00 in0.0 mm 0.00 in0.0 mm 0.48 in12.2 mm